Accueil
METAR-TAF:

METAR-TAF

Aéroports :

Valence, France

Aéroport de Valence-Chabeuil

latitude: 44-54-58N, longitude: 4-58-06E, altitude: 160 m

Observation

Le bulletin a été fait il y a 9 heures et 25 minutes, à 18:00 UTC
Vent 7 kt de sud/sud-ouest
Température 19°C
Humidité 64%
Pression 1013 hPa
Visibilité 10 km ou plus

METAR: LFLU 181800Z AUTO 21007KT 9999 ///CB 19/12 Q1013

Heure: 05:25 (03:25 UTC)


TAF: absent

Observations et prévisions météorologiques de plus de 4000 aéroports (messages METAR et TAF).

Les stations disponibles sont représentées par des disques jaunes et rouges sur la carte.

Passer la souris dessus pour voir le nom de la station.

Cliquer dessus pour voir les observations et prévisions météorologiques.

Pour changer de carte: cliquez sur les boutons verts avec une croix noire pour zoomer, sur le bouton vert avec un tiret pour effectuer un zoom arrière, ou sur les flèches vertes pour les cartes adjacentes.


METAR-TAF: